Dades meteomassalio
Diari Summary for Setembre 12, 2017 Units:  Metric    English   Both
« Previous Day
Next Day »
Diari Semanal Mensual Anual Personalitzat
  Maxima: Minima: Mijana:
Temperatura: -17.8 °C -11 °C -7.4 °C
Rosada: -17.8 °C -16.2 °C -12.4 °C
Humitat: Humidity % 38 % 57 %
Velocitat del vent: 0 km/h 0 km/h 33.6 km/h
Racha vent: 0 km/h - -
Vent:- - SW
Pressio: 0 hPa 34371.3 hPa -
Pluja: 0 mm    
Historical Graphs
 
 
Tabular Data for Setembre 12, 2017
Time Temperature Dew Point Pressure Wind Wind Speed Wind Gust Humidity Rainfall Rate (Hourly) solar Conditions
-17.8 °C -17.8 °C 0 hPa Calm     Humidity % 0 mm SolarRadiationWatts/m^2 W/m2 Conditions
00:01 -7.3 °C -11.6 °C 34384.8 hPa SSW 26.9 km/h 26.9 km/h 61 % 0 mm 0.0 W/m2 CLR
00:02 -7.3 °C -11.6 °C 34371.3 hPa SSW 23.8 km/h 23.8 km/h 61 % 0 mm 0.0 W/m2 CLR
00:07 -7.3 °C -11.4 °C 34371.3 hPa SSW 29.8 km/h 29.8 km/h 62 % 0 mm 0.0 W/m2 CLR
00:12 -7.6 °C -11.7 °C 34371.3 hPa SSW 28.5 km/h 28.5 km/h 62 % 0 mm 0.0 W/m2 CLR
00:17 -7.3 °C -11.4 °C 34384.8 hPa SSW 29.8 km/h 29.8 km/h 62 % 0 mm 0.0 W/m2 CLR
00:22 -7.3 °C -11.4 °C 34371.3 hPa SSW 41.7 km/h 41.7 km/h 62 % 0 mm 0.0 W/m2 CLR
00:27 -7.3 °C -11.3 °C 34371.3 hPa SW 26.9 km/h 26.9 km/h 63 % 0 mm 0.0 W/m2 CLR
00:32 -7.6 °C -11.6 °C 34384.8 hPa SW 29.8 km/h 29.8 km/h 63 % 0 mm 0.0 W/m2 CLR
00:37 -7.6 °C -11.6 °C 34384.8 hPa SW 26.9 km/h 26.9 km/h 63 % 0 mm 0.0 W/m2 CLR
00:42 -7.6 °C -11.6 °C 34384.8 hPa SSW 23.8 km/h 23.8 km/h 63 % 0 mm 0.0 W/m2 CLR
00:47 -7.6 °C -11.4 °C 34384.8 hPa SSW 29.8 km/h 29.8 km/h 64 % 0 mm 0.0 W/m2 CLR
00:52 -7.6 °C -11.4 °C 34384.8 hPa SSW 23.8 km/h 23.8 km/h 64 % 0 mm 0.0 W/m2 CLR
00:57 -7.6 °C -11.4 °C 34384.8 hPa SSW 29.8 km/h 29.8 km/h 64 % 0 mm 0.0 W/m2 CLR
01:02 -7.9 °C -11.7 °C 34384.8 hPa SSW 23.8 km/h 23.8 km/h 64 % 0 mm 0.0 W/m2 CLR
01:07 -7.9 °C -11.7 °C 34384.8 hPa SSW 26.9 km/h 26.9 km/h 64 % 0 mm 0.0 W/m2 CLR
01:12 -7.9 °C -11.6 °C 34384.8 hPa SSW 29.8 km/h 29.8 km/h 65 % 0 mm 0.0 W/m2 CLR
01:17 -7.9 °C -11.6 °C 34384.8 hPa SSW 29.8 km/h 29.8 km/h 65 % 0 mm 0.0 W/m2 CLR
01:22 -7.9 °C -11.6 °C 34395 hPa SSW 26.9 km/h 26.9 km/h 65 % 0 mm 0.0 W/m2 CLR
01:27 -7.9 °C -11.6 °C 34395 hPa SW 23.3 km/h 23.3 km/h 65 % 0 mm 0.0 W/m2 CLR
01:32 -7.9 °C -11.5 °C 34395 hPa SSW 15 km/h 15 km/h 66 % 0 mm 0.0 W/m2 CLR
01:37 -8.2 °C -11.8 °C 34395 hPa SSW 29.8 km/h 29.8 km/h 66 % 0 mm 0.0 W/m2 CLR
01:42 -8.2 °C -11.8 °C 34395 hPa South 26.9 km/h 26.9 km/h 66 % 0 mm 0.0 W/m2 CLR
01:47 -8.2 °C -11.8 °C 34395 hPa South 20.9 km/h 20.9 km/h 66 % 0 mm 0.0 W/m2 CLR
01:52 -8.5 °C -11.9 °C 34405.1 hPa SW 20.9 km/h 20.9 km/h 67 % 0 mm 0.0 W/m2 CLR
01:57 -8.5 °C -11.9 °C 34405.1 hPa SSW 26.9 km/h 26.9 km/h 67 % 0 mm 0.0 W/m2 CLR
02:02 -8.5 °C -11.9 °C 34405.1 hPa SSW 23.3 km/h 23.3 km/h 67 % 0 mm 0.0 W/m2 CLR
02:07 -8.5 °C -11.9 °C 34405.1 hPa SSW 41.7 km/h 41.7 km/h 67 % 0 mm 0.0 W/m2 CLR
02:13 -8.5 °C -11.9 °C 34405.1 hPa SW 35.7 km/h 35.7 km/h 67 % 0 mm 0.0 W/m2 CLR
02:18 -8.5 °C -11.9 °C 34405.1 hPa SW 11.9 km/h 11.9 km/h 67 % 0 mm 0.0 W/m2 CLR
02:23 -8.2 °C -11.5 °C 34405.1 hPa SSW 23.8 km/h 23.8 km/h 68 % 0 mm 0.0 W/m2 CLR
02:28 -8.5 °C -11.8 °C 34405.1 hPa SSW 28.5 km/h 28.5 km/h 68 % 0 mm 0.0 W/m2 CLR
02:33 -8.5 °C -11.8 °C 34418.7 hPa SW 23.8 km/h 23.8 km/h 68 % 0 mm 0.0 W/m2 CLR
02:38 -8.2 °C -11.5 °C 34418.7 hPa SSW 15.6 km/h 15.6 km/h 68 % 0 mm 0.0 W/m2 CLR
02:43 -8.5 °C -11.8 °C 34418.7 hPa SSW 11.9 km/h 11.9 km/h 68 % 0 mm 0.0 W/m2 CLR
02:48 -8.5 °C -11.8 °C 34418.7 hPa SSW 23.8 km/h 23.8 km/h 68 % 0 mm 0.0 W/m2 CLR
02:53 -8.5 °C -11.8 °C 34418.7 hPa SSW 23.8 km/h 23.8 km/h 68 % 0 mm 0.0 W/m2 CLR
02:58 -8.5 °C -11.8 °C 34418.7 hPa SSW 26.9 km/h 26.9 km/h 68 % 0 mm 0.0 W/m2 CLR
03:03 -8.5 °C -11.7 °C 34418.7 hPa SSW 20.9 km/h 20.9 km/h 69 % 0 mm 0.0 W/m2 CLR
03:08 -8.5 °C -11.7 °C 34418.7 hPa SSW 29.8 km/h 29.8 km/h 69 % 0 mm 0.0 W/m2 CLR
03:13 -8.2 °C -11.4 °C 34418.7 hPa SSW 32.8 km/h 32.8 km/h 69 % 0 mm 0.0 W/m2 CLR
03:18 -8.2 °C -11.4 °C 34418.7 hPa SW 23.3 km/h 23.3 km/h 69 % 0 mm 0.0 W/m2 CLR
03:23 -8.2 °C -11.4 °C 34418.7 hPa SSW 26.9 km/h 26.9 km/h 69 % 0 mm 0.0 W/m2 CLR
03:28 -8.2 °C -11.4 °C 34418.7 hPa SW 17.9 km/h 17.9 km/h 69 % 0 mm 0.0 W/m2 CLR
03:33 -8.2 °C -11.4 °C 34418.7 hPa South 23.8 km/h 23.8 km/h 69 % 0 mm 0.0 W/m2 CLR
03:38 -8.2 °C -11.4 °C 34418.7 hPa SSW 20.9 km/h 20.9 km/h 69 % 0 mm 0.0 W/m2 CLR
03:43 -8.2 °C -11.4 °C 34418.7 hPa SSW 29.8 km/h 29.8 km/h 69 % 0 mm 0.0 W/m2 CLR
03:48 -8.2 °C -11.4 °C 34418.7 hPa South 26.9 km/h 26.9 km/h 69 % 0 mm 0.0 W/m2 CLR
03:53 -8.2 °C -11.4 °C 34428.8 hPa SW 23.8 km/h 23.8 km/h 69 % 0 mm 0.0 W/m2 CLR
03:58 -8.2 °C -11.4 °C 34428.8 hPa South 29.8 km/h 29.8 km/h 69 % 0 mm 0.0 W/m2 CLR
04:03 -8.2 °C -11.4 °C 34428.8 hPa SW 36.2 km/h 36.2 km/h 69 % 0 mm 0.0 W/m2 CLR
04:08 -8.2 °C -11.4 °C 34418.7 hPa SSW 36.2 km/h 36.2 km/h 69 % 0 mm 0.0 W/m2 CLR
04:13 -8.2 °C -11.4 °C 34428.8 hPa South 28.5 km/h 28.5 km/h 69 % 0 mm 0.0 W/m2 CLR
04:18 -8.2 °C -11.4 °C 34418.7 hPa South 35.7 km/h 35.7 km/h 69 % 0 mm 0.0 W/m2 CLR
04:23 -8.2 °C -11.4 °C 34418.7 hPa SSW 44.7 km/h 44.7 km/h 69 % 0 mm 0.0 W/m2 CLR
04:28 -8.2 °C -11.4 °C 34418.7 hPa SSW 23.8 km/h 23.8 km/h 69 % 0 mm 0.0 W/m2 CLR
04:33 -8.2 °C -11.4 °C 34418.7 hPa SW 29.8 km/h 29.8 km/h 69 % 0 mm 0.0 W/m2 CLR
04:38 -8.2 °C -11.4 °C 34428.8 hPa SSW 26.9 km/h 26.9 km/h 69 % 0 mm 0.0 W/m2 CLR
04:43 -8.2 °C -11.4 °C 34428.8 hPa South 29.8 km/h 29.8 km/h 69 % 0 mm 0.0 W/m2 CLR
04:48 -8.2 °C -11.4 °C 34428.8 hPa SSW 26.9 km/h 26.9 km/h 69 % 0 mm 0.0 W/m2 CLR
04:53 -8.2 °C -11.4 °C 34428.8 hPa SSW 35.7 km/h 35.7 km/h 69 % 0 mm 0.0 W/m2 CLR
04:58 -8.2 °C -11.4 °C 34428.8 hPa SW 33.6 km/h 33.6 km/h 69 % 0 mm 0.0 W/m2 CLR
05:03 -8.2 °C -11.4 °C 34428.8 hPa SSW 36.2 km/h 36.2 km/h 69 % 0 mm 0.0 W/m2 CLR
05:08 -8.2 °C -11.4 °C 34428.8 hPa SW 35.7 km/h 35.7 km/h 69 % 0 mm 0.0 W/m2 CLR
05:14 -8.2 °C -11.4 °C 34442.4 hPa SW 35.7 km/h 35.7 km/h 69 % 0 mm 0.0 W/m2 CLR
05:19 -8.2 °C -11.4 °C 34428.8 hPa SW 29.8 km/h 29.8 km/h 69 % 0 mm 0.0 W/m2 CLR
05:22 -8.2 °C -11.4 °C 34428.8 hPa SSW 36.2 km/h 36.2 km/h 69 % 0 mm 0.0 W/m2 CLR
05:27 -8.2 °C -11.4 °C 34428.8 hPa SW 38.8 km/h 38.8 km/h 69 % 0 mm 0.0 W/m2 CLR
05:32 -8.5 °C -11.7 °C 34428.8 hPa SW 35.7 km/h 35.7 km/h 69 % 0 mm 0.0 W/m2 CLR
05:37 -8.5 °C -11.7 °C 34428.8 hPa SW 25.9 km/h 25.9 km/h 69 % 0 mm 0.0 W/m2 CLR
05:42 -8.5 °C -11.7 °C 34442.4 hPa SW 29.8 km/h 29.8 km/h 69 % 0 mm 0.0 W/m2 CLR
05:47 -8.5 °C -11.7 °C 34428.8 hPa SW 29.8 km/h 29.8 km/h 69 % 0 mm 0.0 W/m2 CLR
05:52 -8.5 °C -11.7 °C 34428.8 hPa SSW 26.9 km/h 26.9 km/h 69 % 0 mm 0.0 W/m2 CLR
05:57 -8.5 °C -11.7 °C 34428.8 hPa SW 26.9 km/h 26.9 km/h 69 % 0 mm 0.0 W/m2 CLR
06:02 -8.5 °C -11.7 °C 34428.8 hPa SW 26.9 km/h 26.9 km/h 69 % 0 mm 0.0 W/m2 CLR
06:07 -8.5 °C -11.7 °C 34428.8 hPa SSW 29.8 km/h 29.8 km/h 69 % 0 mm 0.0 W/m2 CLR
06:12 -8.8 °C -12 °C 34428.8 hPa SW 26.9 km/h 26.9 km/h 69 % 0 mm 0.0 W/m2 CLR
06:14 -8.8 °C -12 °C 34442.4 hPa SSW 26.9 km/h 26.9 km/h 69 % 0 mm 0.0 W/m2 CLR
06:19 -8.8 °C -12 °C 34428.8 hPa SSW 9 km/h   69 % 0 mm 0.0 W/m2 CLR
06:24 -8.8 °C -11.9 °C 34428.8 hPa SSW 15 km/h 15 km/h 70 % 0 mm 0.0 W/m2 CLR
06:29 -8.8 °C -11.9 °C 34442.4 hPa SSW 20.9 km/h 20.9 km/h 70 % 0 mm 0.0 W/m2 CLR
06:34 -9.1 °C -12.2 °C 34442.4 hPa SSW 29.8 km/h 29.8 km/h 70 % 0 mm 0.0 W/m2 CLR
06:39 -9.1 °C -12.1 °C 34442.4 hPa SSW 32.8 km/h 32.8 km/h 71 % 0 mm 0.0 W/m2 CLR
06:44 -9.1 °C -12.1 °C 34442.4 hPa SW 26.9 km/h 26.9 km/h 71 % 0 mm 0.0 W/m2 CLR
06:49 -9.1 °C -11.9 °C 34442.4 hPa South 38.8 km/h 38.8 km/h 72 % 0 mm 0.0 W/m2 CLR
06:54 -9.1 °C -11.9 °C 34442.4 hPa SSW 29.8 km/h 29.8 km/h 72 % 0 mm 0.0 W/m2 CLR
06:59 -9.1 °C -11.9 °C 34442.4 hPa SSW 29.8 km/h 29.8 km/h 72 % 0 mm 0.0 W/m2 CLR
07:04 -9.1 °C -11.9 °C 34442.4 hPa SSW 20.9 km/h 20.9 km/h 72 % 0 mm 0.0 W/m2 CLR
07:09 -9.1 °C -11.9 °C 34442.4 hPa SSW 26.9 km/h 26.9 km/h 72 % 0 mm 0.0 W/m2 CLR
07:14 -9.1 °C -11.9 °C 34452.6 hPa SSW 20.9 km/h 20.9 km/h 72 % 0 mm 0.0 W/m2 CLR
07:19 -9.1 °C -11.9 °C 34452.6 hPa South 23.3 km/h 23.3 km/h 72 % 0 mm 0.0 W/m2 CLR
07:21 -9.1 °C -11.9 °C 34452.6 hPa SSW 26.9 km/h 26.9 km/h 72 % 0 mm 0.0 W/m2 CLR
07:26 -9.1 °C -11.9 °C 34452.6 hPa South 23.8 km/h 23.8 km/h 72 % 0 mm 0.0 W/m2 CLR
07:31 -9.1 °C -11.9 °C 34452.6 hPa SSW 29.8 km/h 29.8 km/h 72 % 0 mm 0.0 W/m2 OVC
07:36 -9.1 °C -11.9 °C 34452.6 hPa SSW 38.8 km/h 38.8 km/h 72 % 0 mm 5.0 W/m2 OVC
07:41 -9.1 °C -11.9 °C 34452.6 hPa SW 23.8 km/h 23.8 km/h 72 % 0 mm 5.0 W/m2 OVC
07:46 -9.1 °C -11.9 °C 34452.6 hPa SSW 38.8 km/h 38.8 km/h 72 % 0 mm 7.0 W/m2 BKN
07:51 -9.1 °C -11.9 °C 34452.6 hPa SSW 26.9 km/h 26.9 km/h 72 % 0 mm 12.0 W/m2 BKN
07:56 -9.1 °C -11.9 °C 34452.6 hPa SSW 32.8 km/h 32.8 km/h 72 % 0 mm 16.0 W/m2 BKN
08:01 -9.1 °C -11.9 °C 34452.6 hPa SSW 31.1 km/h 31.1 km/h 72 % 0 mm 18.0 W/m2 BKN
08:06 -9.1 °C -12.1 °C 34462.7 hPa South 29.8 km/h 29.8 km/h 71 % 0 mm 18.0 W/m2 BKN
08:11 -8.8 °C -11.8 °C 34462.7 hPa SSW 35.7 km/h 35.7 km/h 71 % 0 mm 21.0 W/m2 BKN
08:16 -8.8 °C -11.8 °C 34462.7 hPa South 29.8 km/h 29.8 km/h 71 % 0 mm 28.0 W/m2 BKN
08:21 -8.8 °C -11.8 °C 34462.7 hPa SSW 29.8 km/h 29.8 km/h 71 % 0 mm 32.0 W/m2 BKN
08:26 -8.8 °C -11.9 °C 34462.7 hPa South 26.9 km/h 26.9 km/h 70 % 0 mm 37.0 W/m2 BKN
08:31 -8.8 °C -11.9 °C 34462.7 hPa SSW 32.8 km/h 32.8 km/h 70 % 0 mm 33.0 W/m2 BKN
08:36 -8.8 °C -11.9 °C 34476.3 hPa South 29.8 km/h 29.8 km/h 70 % 0 mm 28.0 W/m2 BKN
08:41 -8.8 °C -11.9 °C 34476.3 hPa South 35.7 km/h 35.7 km/h 70 % 0 mm 33.0 W/m2 BKN
08:46 -8.8 °C -11.9 °C 34462.7 hPa South 23.8 km/h 23.8 km/h 70 % 0 mm 58.0 W/m2 BKN
08:51 -8.8 °C -11.9 °C 34476.3 hPa SSW 29.8 km/h 29.8 km/h 70 % 0 mm 88.0 W/m2 SCT
08:56 -8.8 °C -11.9 °C 34476.3 hPa South 29.8 km/h 29.8 km/h 70 % 0 mm 102.0 W/m2 CLR
09:01 -8.8 °C -12 °C 34476.3 hPa South 29.8 km/h 29.8 km/h 69 % 0 mm 67.0 W/m2 CLR
09:06 -8.8 °C -12 °C 34486.4 hPa SSW 32.8 km/h 32.8 km/h 69 % 0 mm 40.0 W/m2 FEW
09:11 -8.8 °C -12 °C 34476.3 hPa SSW 32.8 km/h 32.8 km/h 69 % 0 mm 49.0 W/m2 SCT
09:16 -8.8 °C -12 °C 34476.3 hPa SSW 23.8 km/h 23.8 km/h 69 % 0 mm 77.0 W/m2 SCT
09:21 -8.5 °C -11.7 °C 34486.4 hPa SSW 29.8 km/h 29.8 km/h 69 % 0 mm 105.0 W/m2 FEW
09:26 -8.5 °C -11.8 °C 34486.4 hPa SSW 31.1 km/h 31.1 km/h 68 % 0 mm 135.0 W/m2 CLR
09:27 -8.5 °C -11.8 °C 34486.4 hPa SSW 38.8 km/h 38.8 km/h 68 % 0 mm 144.0 W/m2 CLR
09:32 -8.5 °C -11.9 °C 34496.6 hPa SSW 36.2 km/h 36.2 km/h 67 % 0 mm 125.0 W/m2 CLR
09:37 -8.2 °C -11.6 °C 34496.6 hPa SSW 31.1 km/h 31.1 km/h 67 % 0 mm 74.0 W/m2 CLR
09:42 -8.5 °C -11.9 °C 34496.6 hPa SW 23.3 km/h 23.3 km/h 67 % 0 mm 81.0 W/m2 FEW
09:47 -8.5 °C -11.9 °C 34496.6 hPa SSW 32.8 km/h 32.8 km/h 67 % 0 mm 97.0 W/m2 FEW
09:52 -8.5 °C -11.9 °C 34510.1 hPa SSW 29.8 km/h 29.8 km/h 67 % 0 mm 114.0 W/m2 CLR
09:57 -8.2 °C -11.6 °C 34510.1 hPa SSW 44.7 km/h 44.7 km/h 67 % 0 mm 120.0 W/m2 CLR
10:02 -8.2 °C -11.6 °C 34510.1 hPa SW 29.8 km/h 29.8 km/h 67 % 0 mm 146.0 W/m2 CLR
10:07 -8.2 °C -11.6 °C 34510.1 hPa SW 29.8 km/h 29.8 km/h 67 % 0 mm 153.0 W/m2 CLR
10:12 -8.2 °C -11.8 °C 34520.3 hPa SW 41.7 km/h 41.7 km/h 66 % 0 mm 234.0 W/m2 CLR
10:17 -7.9 °C -11.5 °C 34520.3 hPa SSW 26.9 km/h 26.9 km/h 66 % 0 mm 285.0 W/m2 CLR
10:22 -7.9 °C -11.6 °C 34520.3 hPa SW 41.7 km/h 41.7 km/h 65 % 0 mm 236.0 W/m2 CLR
10:27 -7.9 °C -11.6 °C 34520.3 hPa West 36.2 km/h 36.2 km/h 65 % 0 mm 151.0 W/m2 CLR
10:32 -7.9 °C -11.7 °C 34510.1 hPa WSW 33.6 km/h 33.6 km/h 64 % 0 mm 214.0 W/m2 CLR
10:37 -7.9 °C -11.7 °C 34520.3 hPa WSW 29.8 km/h 29.8 km/h 64 % 0 mm 197.0 W/m2 CLR
10:42 -7.6 °C -11.7 °C 34520.3 hPa WSW 47.6 km/h 47.6 km/h 62 % 0 mm 195.0 W/m2 CLR
10:47 -7.6 °C -11.6 °C 34520.3 hPa SW 32.8 km/h 32.8 km/h 63 % 0 mm 207.0 W/m2 CLR
10:52 -7.6 °C -11.7 °C 34520.3 hPa WSW 29.8 km/h 29.8 km/h 62 % 0 mm 158.0 W/m2 CLR
10:57 -7.6 °C -11.7 °C 34533.8 hPa WSW 38.8 km/h 38.8 km/h 62 % 0 mm 135.0 W/m2 CLR
11:02 -7.6 °C -11.7 °C 34544 hPa WSW 44.7 km/h 44.7 km/h 62 % 0 mm 172.0 W/m2 CLR
11:07 -7.6 °C -11.7 °C 34533.8 hPa SW 29.8 km/h 29.8 km/h 62 % 0 mm 195.0 W/m2 CLR
11:12 -7.6 °C -11.8 °C 34533.8 hPa WSW 36.2 km/h 36.2 km/h 61 % 0 mm 197.0 W/m2 CLR
11:17 -7.6 °C -11.7 °C 34533.8 hPa South 38.8 km/h 38.8 km/h 62 % 0 mm 248.0 W/m2 CLR
11:22 -7.6 °C -11.8 °C 34544 hPa SW 51.8 km/h 51.8 km/h 61 % 0 mm 255.0 W/m2 CLR
11:27 -7.6 °C -11.8 °C 34544 hPa SW 41.7 km/h 41.7 km/h 61 % 0 mm 327.0 W/m2 CLR
11:32 -7.3 °C -11.6 °C 34544 hPa SW 38.8 km/h 38.8 km/h 61 % 0 mm 288.0 W/m2 CLR
11:37 -7.3 °C -11.7 °C 34544 hPa SW 44.7 km/h 44.7 km/h 60 % 0 mm 294.0 W/m2 CLR
11:42 -7.3 °C -11.7 °C 34544 hPa WSW 41.7 km/h 41.7 km/h 60 % 0 mm 582.0 W/m2 CLR
11:52 -7.3 °C -12 °C 34533.8 hPa SSW 50.7 km/h 50.7 km/h 58 % 0 mm 216.0 W/m2 CLR
11:57 -7.3 °C -12 °C 34533.8 hPa SW 51.8 km/h 51.8 km/h 58 % 0 mm 279.0 W/m2 CLR
12:02 -7 °C -11.7 °C 34544 hPa SW 44.7 km/h 44.7 km/h 58 % 0 mm 378.0 W/m2 CLR
12:03 -7 °C -11.7 °C 34544 hPa SW 41.7 km/h 41.7 km/h 58 % 0 mm 378.0 W/m2 CLR
12:08 -6.7 °C -11.7 °C 34544 hPa SW 57 km/h 57 km/h 56 % 0 mm 378.0 W/m2 CLR
12:13 -6.3 °C -11.7 °C 34544 hPa SSW 65.5 km/h 65.5 km/h 54 % 0 mm 243.0 W/m2 CLR
12:18 -6.7 °C -11.8 °C 34544 hPa WSW 46.7 km/h 46.7 km/h 55 % 0 mm 366.0 W/m2 CLR
12:23 -6.7 °C -12 °C 34544 hPa SW 44.1 km/h 45.4 km/h 54 % 0 mm 341.0 W/m2 CLR
12:28 -6.7 °C -12 °C 34544 hPa WSW 47.6 km/h 47.6 km/h 54 % 0 mm 262.0 W/m2 CLR
12:29 -6.7 °C -12 °C 34544 hPa West 47.6 km/h 47.6 km/h 54 % 0 mm 262.0 W/m2 CLR
12:34 -6.7 °C -12 °C 34544 hPa SW 44.7 km/h 44.7 km/h 54 % 0 mm 348.0 W/m2 CLR
12:39 -6.1 °C -11.4 °C 34544 hPa SW 57 km/h 57 km/h 54 % 0 mm 575.0 W/m2 CLR
12:44 -6.1 °C -11.7 °C 34544 hPa WSW 57 km/h 57 km/h 52 % 0 mm 283.0 W/m2 CLR
12:50 -6.3 °C -12.2 °C 34544 hPa WSW 65.5 km/h 65.5 km/h 51 % 0 mm 243.0 W/m2 CLR
12:55 -6.3 °C -11.8 °C 34533.8 hPa SW 53.6 km/h 53.6 km/h 53 % 0 mm 302.0 W/m2 CLR
13:00 -6.3 °C -11.8 °C 34533.8 hPa WSW 59.5 km/h 59.5 km/h 53 % 0 mm 896.0 W/m2 CLR
13:05 -6.1 °C -11.6 °C 34533.8 hPa WSW 50.7 km/h 50.7 km/h 53 % 0 mm 896.0 W/m2 CLR
13:10 -6.1 °C -11.7 °C 34533.8 hPa WSW 56.6 km/h 56.6 km/h 52 % 0 mm 229.0 W/m2 CLR
13:15 -5.4 °C -11.3 °C 34533.8 hPa SW 50.7 km/h 50.7 km/h 51 % 0 mm 983.0 W/m2 CLR
13:20 -5.4 °C -11.7 °C 34533.8 hPa WSW 51.8 km/h 51.8 km/h 49 % 0 mm 378.0 W/m2 CLR
13:25 -6.1 °C -11.9 °C 34533.8 hPa West 41.7 km/h 41.7 km/h 51 % 0 mm 867.0 W/m2 CLR
13:30 -5.7 °C -11.8 °C 34533.8 hPa SW 47.6 km/h 47.6 km/h 50 % 0 mm 540.0 W/m2 CLR
13:35 -5.7 °C -11.8 °C 34533.8 hPa SW 44.7 km/h 44.7 km/h 50 % 0 mm 891.0 W/m2 CLR
13:40 -5.1 °C -11.4 °C 34533.8 hPa West 50.7 km/h 50.7 km/h 49 % 0 mm 991.0 W/m2 CLR
13:45 -5.7 °C -11.9 °C 34533.8 hPa WSW 57 km/h 57 km/h 49 % 0 mm 366.0 W/m2 CLR
13:50 -5.7 °C -11.8 °C 34533.8 hPa SW 50.7 km/h 50.7 km/h 50 % 0 mm 563.0 W/m2 CLR
13:55 -5.7 °C -11.8 °C 34533.8 hPa SSW 47.6 km/h 47.6 km/h 50 % 0 mm 350.0 W/m2 CLR
14:00 -6.1 °C -12.1 °C 34533.8 hPa West 51.8 km/h 51.8 km/h 50 % 0 mm 420.0 W/m2 CLR
14:05 -5.4 °C -11.5 °C 34533.8 hPa West 53.6 km/h 53.6 km/h 50 % 0 mm 861.0 W/m2 CLR
14:10 -5.1 °C -11.2 °C 34533.8 hPa WSW 44.1 km/h 44.1 km/h 50 % 0 mm 967.0 W/m2 CLR
14:15 -4.8 °C -11.3 °C 34533.8 hPa WSW 53.6 km/h 53.6 km/h 48 % 0 mm 898.0 W/m2 CLR
14:20 -4.5 °C -11.2 °C 34520.3 hPa SSW 54.4 km/h 54.4 km/h 47 % 0 mm 814.0 W/m2 CLR
14:25 -4.8 °C -11.4 °C 34520.3 hPa SW 44.7 km/h 44.7 km/h 47 % 0 mm 738.0 W/m2 CLR
14:30 -5.1 °C -11.7 °C 34520.3 hPa SSW 56.6 km/h 56.6 km/h 47 % 0 mm 497.0 W/m2 CLR
14:35 -4.8 °C -11.3 °C 34520.3 hPa SW 35.7 km/h 35.7 km/h 48 % 0 mm 773.0 W/m2 CLR
14:40 -4.8 °C -11.6 °C 34520.3 hPa WSW 50.7 km/h 50.7 km/h 46 % 0 mm 735.0 W/m2 CLR
14:41 -4.8 °C -11.6 °C 34520.3 hPa West 59.5 km/h 59.5 km/h 46 % 0 mm 735.0 W/m2 CLR
14:46 -4.5 °C -11.3 °C 34520.3 hPa West 59.5 km/h 59.5 km/h 46 % 0 mm 810.0 W/m2 CLR
14:51 -4.8 °C -11.6 °C 34520.3 hPa West 53.6 km/h 53.6 km/h 46 % 0 mm 800.0 W/m2 CLR
14:56 -4.5 °C -11.6 °C 34533.8 hPa WSW 50.7 km/h 50.7 km/h 45 % 0 mm 800.0 W/m2 CLR
15:01 -4.5 °C -11.3 °C 34533.8 hPa WSW 53.6 km/h 53.6 km/h 46 % 0 mm 786.0 W/m2 CLR
15:06 -4.5 °C -11.6 °C 34533.8 hPa WSW 50.7 km/h 50.7 km/h 45 % 0 mm 770.0 W/m2 CLR
15:11 -4.5 °C -11.7 °C 34533.8 hPa WSW 50.7 km/h 50.7 km/h 44 % 0 mm 761.0 W/m2 CLR
15:16 -4.5 °C -11.6 °C 34533.8 hPa WSW 53.6 km/h 53.6 km/h 45 % 0 mm 752.0 W/m2 CLR
15:21 -4.5 °C -11.6 °C 34520.3 hPa WSW 50.7 km/h 50.7 km/h 45 % 0 mm 747.0 W/m2 CLR
15:26 -4.5 °C -11.7 °C 34533.8 hPa SW 68.6 km/h 68.6 km/h 44 % 0 mm 744.0 W/m2 CLR
15:31 -4.5 °C -11.7 °C 34520.3 hPa SW 41.7 km/h 41.7 km/h 44 % 0 mm 724.0 W/m2 CLR
15:36 -4.5 °C -11.7 °C 34520.3 hPa WSW 59.5 km/h 59.5 km/h 44 % 0 mm 719.0 W/m2 CLR
15:41 -4.5 °C -11.7 °C 34520.3 hPa WSW 65.5 km/h 65.5 km/h 44 % 0 mm 712.0 W/m2 CLR
15:46 -4.2 °C -11.4 °C 34520.3 hPa WSW 59.5 km/h 59.5 km/h 44 % 0 mm 705.0 W/m2 CLR
15:51 -4.2 °C -11.4 °C 34520.3 hPa SW 53.6 km/h 53.6 km/h 44 % 0 mm 694.0 W/m2 CLR
15:56 -4.5 °C -11.6 °C 34520.3 hPa WSW 32.8 km/h 32.8 km/h 45 % 0 mm 682.0 W/m2 CLR
16:01 -4.5 °C -11.7 °C 34520.3 hPa WSW 59.5 km/h 59.5 km/h 44 % 0 mm 675.0 W/m2 CLR
16:06 -4.5 °C -11.6 °C 34520.3 hPa WSW 50.7 km/h 50.7 km/h 45 % 0 mm 664.0 W/m2 CLR
16:11 -4.8 °C -12 °C 34520.3 hPa West 67.3 km/h 67.3 km/h 44 % 0 mm 654.0 W/m2 CLR
16:16 -4.5 °C -11.9 °C 34533.8 hPa WSW 54.4 km/h 54.4 km/h 43 % 0 mm 643.0 W/m2 CLR
16:21 -4.5 °C -11.7 °C 34533.8 hPa West 56.6 km/h 56.6 km/h 44 % 0 mm 633.0 W/m2 CLR
16:26 -4.5 °C -12.1 °C 34533.8 hPa SW 56.6 km/h 56.6 km/h 42 % 0 mm 624.0 W/m2 CLR
16:31 -4.5 °C -12.1 °C 34533.8 hPa WSW 65.5 km/h 65.5 km/h 42 % 0 mm 613.0 W/m2 CLR
16:36 -4.5 °C -12.3 °C 34533.8 hPa West 65.5 km/h 65.5 km/h 41 % 0 mm 601.0 W/m2 CLR
16:41 -4.2 °C -12.1 °C 34520.3 hPa WSW 49.2 km/h 49.2 km/h 41 % 0 mm 589.0 W/m2 CLR
16:46 -4.5 °C -12.1 °C 34520.3 hPa WSW 50.7 km/h 50.7 km/h 42 % 0 mm 575.0 W/m2 CLR
16:51 -4.2 °C -12.1 °C 34520.3 hPa West 50.7 km/h 50.7 km/h 41 % 0 mm 564.0 W/m2 CLR
16:56 -4.2 °C -12.1 °C 34520.3 hPa SW 59.5 km/h 59.5 km/h 41 % 0 mm 548.0 W/m2 CLR
17:01 -4.5 °C -12.3 °C 34520.3 hPa WSW 50.7 km/h 50.7 km/h 41 % 0 mm 536.0 W/m2 CLR
17:11 -4.2 °C -12.1 °C 34520.3 hPa SW 53.6 km/h 53.6 km/h 41 % 0 mm 508.0 W/m2 CLR
17:16 -4.5 °C -12.3 °C 34520.3 hPa West 68.6 km/h 68.6 km/h 41 % 0 mm 496.0 W/m2 CLR
17:21 -4.2 °C -12.3 °C 34520.3 hPa WSW 59.5 km/h 59.5 km/h 40 % 0 mm 480.0 W/m2 CLR
17:26 -4.2 °C -12.1 °C 34520.3 hPa SW 56.6 km/h 56.6 km/h 41 % 0 mm 468.0 W/m2 CLR
17:31 -4.5 °C -12.6 °C 34520.3 hPa West 69.8 km/h 69.8 km/h 40 % 0 mm 450.0 W/m2 CLR
17:36 -4.5 °C -12.6 °C 34520.3 hPa WSW 50.7 km/h 50.7 km/h 40 % 0 mm 439.0 W/m2 CLR
17:41 -4.5 °C -12.3 °C 34510.1 hPa WSW 38.8 km/h 38.8 km/h 41 % 0 mm 418.0 W/m2 CLR
17:46 -4.5 °C -12.7 °C 34520.3 hPa West 65.5 km/h 65.5 km/h 39 % 0 mm 406.0 W/m2 CLR
17:52 -4.5 °C -12.9 °C 34520.3 hPa West 47.6 km/h 47.6 km/h 38 % 0 mm 392.0 W/m2 CLR
17:57 -4.5 °C -12.7 °C 34520.3 hPa West 53.6 km/h 53.6 km/h 39 % 0 mm 374.0 W/m2 CLR
18:02 -4.5 °C -12.6 °C 34520.3 hPa WSW 44.7 km/h 44.7 km/h 40 % 0 mm 359.0 W/m2 CLR
18:07 -4.5 °C -12.6 °C 34520.3 hPa West 36.2 km/h 36.2 km/h 40 % 0 mm 343.0 W/m2 CLR
18:12 -4.5 °C -12.6 °C 34520.3 hPa WSW 57 km/h 57 km/h 40 % 0 mm 329.0 W/m2 CLR
18:17 -4.5 °C -12.3 °C 34520.3 hPa SW 50.7 km/h 50.7 km/h 41 % 0 mm 309.0 W/m2 CLR
18:18 -4.5 °C -12.3 °C 34520.3 hPa West 50.7 km/h 50.7 km/h 41 % 0 mm 306.0 W/m2 CLR
18:23 -4.5 °C -12.3 °C 34520.3 hPa SW 44.7 km/h 44.7 km/h 41 % 0 mm 290.0 W/m2 CLR
18:28 -4.8 °C -12.6 °C 34520.3 hPa WSW 41.4 km/h 41.4 km/h 41 % 0 mm 274.0 W/m2 CLR
18:33 -4.8 °C -12.6 °C 34520.3 hPa West 47.6 km/h 47.6 km/h 41 % 0 mm 262.0 W/m2 CLR
18:38 -4.8 °C -12.6 °C 34520.3 hPa SW 29.8 km/h 29.8 km/h 41 % 0 mm 241.0 W/m2 CLR
18:43 -5.1 °C -12.9 °C 34533.8 hPa WSW 53.6 km/h 53.6 km/h 41 % 0 mm 220.0 W/m2 CLR
18:48 -4.8 °C -12.6 °C 34533.8 hPa West 38.8 km/h 38.8 km/h 41 % 0 mm 207.0 W/m2 CLR
18:53 -5.1 °C -12.9 °C 34520.3 hPa West 56.6 km/h 56.6 km/h 41 % 0 mm 193.0 W/m2 CLR
18:58 -5.1 °C -12.9 °C 34533.8 hPa West 47.6 km/h 47.6 km/h 41 % 0 mm 174.0 W/m2 CLR
19:03 -5.1 °C -12.7 °C 34533.8 hPa West 47.6 km/h 47.6 km/h 42 % 0 mm 141.0 W/m2 CLR
19:08 -5.4 °C -12.9 °C 34533.8 hPa WSW 38.8 km/h 38.8 km/h 42 % 0 mm 109.0 W/m2 CLR
19:13 -5.4 °C -12.7 °C 34533.8 hPa West 35.7 km/h 35.7 km/h 43 % 0 mm 107.0 W/m2 CLR
19:18 -5.4 °C -12.7 °C 34533.8 hPa West 41.7 km/h 41.7 km/h 43 % 0 mm 97.0 W/m2 CLR
19:23 -5.4 °C -12.7 °C 34533.8 hPa West 41.7 km/h 41.7 km/h 43 % 0 mm 70.0 W/m2 FEW
19:28 -5.4 °C -12.7 °C 34533.8 hPa WSW 50.7 km/h 50.7 km/h 43 % 0 mm 49.0 W/m2 SCT
19:33 -5.7 °C -12.8 °C 34533.8 hPa WSW 23.8 km/h 23.8 km/h 44 % 0 mm 42.0 W/m2 BKN
19:38 -5.7 °C -13 °C 34544 hPa WSW 32.8 km/h 32.8 km/h 43 % 0 mm 46.0 W/m2 SCT
19:43 -5.7 °C -13 °C 34544 hPa West 32.8 km/h 32.8 km/h 43 % 0 mm 32.0 W/m2 BKN
19:48 -5.7 °C -13 °C 34544 hPa WSW 32.8 km/h 32.8 km/h 43 % 0 mm 23.0 W/m2 BKN
19:53 -6.1 °C -13.3 °C 34544 hPa West 29.8 km/h 29.8 km/h 43 % 0 mm 18.0 W/m2 BKN
19:58 -6.1 °C -13.3 °C 34544 hPa West 35.7 km/h 35.7 km/h 43 % 0 mm 14.0 W/m2 BKN
20:03 -6.1 °C -13.3 °C 34554.1 hPa WSW 36.2 km/h 36.2 km/h 43 % 0 mm 11.0 W/m2 BKN
20:08 -6.1 °C -13.1 °C 34554.1 hPa SW 29.8 km/h 29.8 km/h 44 % 0 mm 7.0 W/m2 BKN
20:13 -6.3 °C -13.4 °C 34554.1 hPa SW 29.8 km/h 29.8 km/h 44 % 0 mm 5.0 W/m2 OVC
20:18 -6.3 °C -13.4 °C 34567.7 hPa WSW 32.8 km/h 32.8 km/h 44 % 0 mm 0.0 W/m2 OVC
20:23 -6.3 °C -13.4 °C 34567.7 hPa WSW 29.8 km/h 29.8 km/h 44 % 0 mm 0.0 W/m2 OVC
20:28 -6.3 °C -13.2 °C 34567.7 hPa WSW 32.8 km/h 32.8 km/h 45 % 0 mm 0.0 W/m2 CLR
20:33 -6.7 °C -13.5 °C 34567.7 hPa SW 23.8 km/h 23.8 km/h 45 % 0 mm 0.0 W/m2 CLR
20:38 -7 °C -13.8 °C 34577.8 hPa SW 26.9 km/h 26.9 km/h 45 % 0 mm 0.0 W/m2 CLR
20:43 -7 °C -13.8 °C 34577.8 hPa SW 23.8 km/h 23.8 km/h 45 % 0 mm 0.0 W/m2 CLR
20:48 -7.3 °C -14.1 °C 34577.8 hPa SW 15.6 km/h 15.6 km/h 45 % 0 mm 0.0 W/m2 CLR
20:53 -7.3 °C -14.1 °C 34577.8 hPa SW 20.9 km/h 20.9 km/h 45 % 0 mm 0.0 W/m2 CLR
20:58 -7.3 °C -13.9 °C 34577.8 hPa SW 26.9 km/h 26.9 km/h 46 % 0 mm 0.0 W/m2 CLR
21:03 -7.6 °C -14.2 °C 34591.4 hPa SW 20.8 km/h 20.8 km/h 46 % 0 mm 0.0 W/m2 CLR
21:08 -7.6 °C -14.2 °C 34591.4 hPa SW 20.9 km/h 20.9 km/h 46 % 0 mm 0.0 W/m2 CLR
21:13 -7.6 °C -14.2 °C 34591.4 hPa SW 15 km/h 15 km/h 46 % 0 mm 0.0 W/m2 CLR
21:18 -7.9 °C -14.3 °C 34591.4 hPa WSW 20.8 km/h 20.8 km/h 47 % 0 mm 0.0 W/m2 CLR
21:23 -7.9 °C -14.3 °C 34601.5 hPa WSW 15.6 km/h 15.6 km/h 47 % 0 mm 0.0 W/m2 CLR
21:28 -8.2 °C -14.6 °C 34601.5 hPa SW 20.9 km/h 20.9 km/h 47 % 0 mm 0.0 W/m2 CLR
21:33 -8.2 °C -14.6 °C 34601.5 hPa Calm     47 % 0 mm 0.0 W/m2 CLR
21:38 -8.5 °C -14.8 °C 34601.5 hPa Calm     47 % 0 mm 0.0 W/m2 CLR
21:43 -8.8 °C -15.1 °C 34601.5 hPa Calm     47 % 0 mm 0.0 W/m2 CLR
21:48 -9.1 °C -15.4 °C 34611.7 hPa Calm     47 % 0 mm 0.0 W/m2 CLR
21:53 -9.4 °C -15.7 °C 34611.7 hPa Calm     47 % 0 mm 0.0 W/m2 CLR
21:58 -9.4 °C -15.5 °C 34611.7 hPa Calm     48 % 0 mm 0.0 W/m2 CLR
22:03 -9.8 °C -15.7 °C 34611.7 hPa Calm     49 % 0 mm 0.0 W/m2 CLR
22:08 -9.8 °C -15.7 °C 34611.7 hPa Calm     49 % 0 mm 0.0 W/m2 CLR
22:13 -10.1 °C -15.8 °C 34625.2 hPa Calm     50 % 0 mm 0.0 W/m2 CLR
22:18 -10.1 °C -15.8 °C 34625.2 hPa Calm     50 % 0 mm 0.0 W/m2 CLR
22:23 -10.4 °C -15.9 °C 34625.2 hPa SSW 6 km/h 6 km/h 51 % 0 mm 0.0 W/m2 CLR
22:28 -10.4 °C -15.9 °C 34625.2 hPa SSW 9 km/h 9 km/h 51 % 0 mm 0.0 W/m2 CLR
22:33 -10.4 °C -15.9 °C 34625.2 hPa SSW 12.9 km/h 12.9 km/h 51 % 0 mm 0.0 W/m2 CLR
22:34 -10.4 °C -15.9 °C 34635.4 hPa South 12.9 km/h 12.9 km/h 51 % 0 mm 0.0 W/m2 CLR
22:39 -10.7 °C -16.2 °C 34625.2 hPa South 17.9 km/h 17.9 km/h 51 % 0 mm 0.0 W/m2 CLR
22:44 -10.1 °C -15.6 °C 34635.4 hPa South 11.9 km/h 12.2 km/h 51 % 0 mm 0.0 W/m2 CLR
22:49 -9.8 °C -15.2 °C 34635.4 hPa South 15 km/h 15 km/h 52 % 0 mm 0.0 W/m2 CLR
22:54 -9.8 °C -15.2 °C 34635.4 hPa South 9 km/h 9 km/h 52 % 0 mm 0.0 W/m2 CLR
22:59 -10.1 °C -15.4 °C 34635.4 hPa Calm     52 % 0 mm 0.0 W/m2 CLR
23:04 -10.1 °C -15.3 °C 34635.4 hPa Calm     53 % 0 mm 0.0 W/m2 CLR
23:09 -10.1 °C -15.3 °C 34635.4 hPa SSE 6 km/h 6 km/h 53 % 0 mm 0.0 W/m2 CLR
23:14 -10.4 °C -15.3 °C 34635.4 hPa Calm     55 % 0 mm 0.0 W/m2 CLR
23:19 -10.4 °C -15.2 °C 34645.6 hPa Calm     56 % 0 mm 0.0 W/m2 CLR
23:24 -10.7 °C -15.3 °C 34645.6 hPa Calm     57 % 0 mm 0.0 W/m2 CLR
23:29 -10.7 °C -15.2 °C 34645.6 hPa Calm     58 % 0 mm 0.0 W/m2 CLR
23:34 -10.7 °C -15.1 °C 34645.6 hPa South 3.1 km/h 3.1 km/h 59 % 0 mm 0.0 W/m2 CLR
23:39 -10.7 °C -14.9 °C 34645.6 hPa Calm     60 % 0 mm 0.0 W/m2 CLR
23:44 -11 °C -15.2 °C 34645.6 hPa Calm     60 % 0 mm 0.0 W/m2 CLR
23:49 -11 °C -15.1 °C 34645.6 hPa Calm     61 % 0 mm 0.0 W/m2 CLR
23:54 -11 °C -15.1 °C 34645.6 hPa Calm     61 % 0 mm 0.0 W/m2 CLR
23:59 -11 °C -15.1 °C 34645.6 hPa Calm     61 % 0 mm 0.0 W/m2 CLR
Lo Temps de Massalio
Compliments of Weather Underground - 1.25 mb